sensor_id;sensor_type;location;lat;lon;timestamp;temperature;humidity
18268;DHT22;9260;49.998;19.880;2023-04-24T00:07:15;6.60;1.00
18268;DHT22;9260;49.998;19.880;2023-04-24T00:17:20;6.40;1.00
18268;DHT22;9260;49.998;19.880;2023-04-24T00:27:24;6.20;1.00
18268;DHT22;9260;49.998;19.880;2023-04-24T00:37:29;5.80;1.00
18268;DHT22;9260;49.998;19.880;2023-04-24T00:47:33;5.60;1.00
18268;DHT22;9260;49.998;19.880;2023-04-24T00:57:38;5.30;1.00
18268;DHT22;9260;49.998;19.880;2023-04-24T01:07:43;5.10;1.00
18268;DHT22;9260;49.998;19.880;2023-04-24T01:17:52;5.10;1.00
18268;DHT22;9260;49.998;19.880;2023-04-24T01:27:57;5.20;1.00
18268;DHT22;9260;49.998;19.880;2023-04-24T01:38:01;5.20;1.00
18268;DHT22;9260;49.998;19.880;2023-04-24T01:48:05;5.40;1.00
18268;DHT22;9260;49.998;19.880;2023-04-24T01:58:09;5.50;1.00
18268;DHT22;9260;49.998;19.880;2023-04-24T02:08:14;5.60;1.00
18268;DHT22;9260;49.998;19.880;2023-04-24T02:18:17;5.80;1.00
18268;DHT22;9260;49.998;19.880;2023-04-24T02:28:22;5.80;1.00
18268;DHT22;9260;49.998;19.880;2023-04-24T02:38:25;5.60;1.00
18268;DHT22;9260;49.998;19.880;2023-04-24T02:48:30;5.70;1.00
18268;DHT22;9260;49.998;19.880;2023-04-24T02:58:34;5.90;1.00
18268;DHT22;9260;49.998;19.880;2023-04-24T03:08:38;6.00;1.00
18268;DHT22;9260;49.998;19.880;2023-04-24T03:18:42;5.80;1.00
18268;DHT22;9260;49.998;19.880;2023-04-24T03:28:47;5.40;1.00
18268;DHT22;9260;49.998;19.880;2023-04-24T03:38:50;5.20;1.00
18268;DHT22;9260;49.998;19.880;2023-04-24T03:49:05;5.10;1.00
18268;DHT22;9260;49.998;19.880;2023-04-24T03:59:12;5.10;1.00
18268;DHT22;9260;49.998;19.880;2023-04-24T04:09:20;5.20;1.00
18268;DHT22;9260;49.998;19.880;2023-04-24T04:19:25;5.30;1.00
18268;DHT22;9260;49.998;19.880;2023-04-24T04:29:30;5.60;1.00
18268;DHT22;9260;49.998;19.880;2023-04-24T04:39:35;6.00;1.00
18268;DHT22;9260;49.998;19.880;2023-04-24T04:49:52;6.30;1.00
18268;DHT22;9260;49.998;19.880;2023-04-24T04:59:59;6.50;1.00
18268;DHT22;9260;49.998;19.880;2023-04-24T05:10:16;6.90;1.00
18268;DHT22;9260;49.998;19.880;2023-04-24T05:20:21;7.40;1.00
18268;DHT22;9260;49.998;19.880;2023-04-24T05:30:26;8.00;1.00
18268;DHT22;9260;49.998;19.880;2023-04-24T05:40:30;8.70;1.00
18268;DHT22;9260;49.998;19.880;2023-04-24T05:50:35;9.70;1.00
18268;DHT22;9260;49.998;19.880;2023-04-24T06:00:39;10.80;1.00
18268;DHT22;9260;49.998;19.880;2023-04-24T06:10:46;12.60;1.00
18268;DHT22;9260;49.998;19.880;2023-04-24T06:20:51;14.70;1.00
18268;DHT22;9260;49.998;19.880;2023-04-24T06:30:56;16.70;1.00
18268;DHT22;9260;49.998;19.880;2023-04-24T06:41:00;18.30;1.00
18268;DHT22;9260;49.998;19.880;2023-04-24T06:51:06;19.10;1.00
18268;DHT22;9260;49.998;19.880;2023-04-24T07:01:10;20.50;1.00
18268;DHT22;9260;49.998;19.880;2023-04-24T07:11:15;22.70;1.00
18268;DHT22;9260;49.998;19.880;2023-04-24T07:21:18;25.90;1.00
18268;DHT22;9260;49.998;19.880;2023-04-24T07:31:23;28.00;1.00
18268;DHT22;9260;49.998;19.880;2023-04-24T07:41:27;30.40;1.00
18268;DHT22;9260;49.998;19.880;2023-04-24T07:51:32;32.70;1.00
18268;DHT22;9260;49.998;19.880;2023-04-24T08:01:39;34.50;1.00
18268;DHT22;9260;49.998;19.880;2023-04-24T08:11:44;34.90;1.00
18268;DHT22;9260;49.998;19.880;2023-04-24T08:21:48;33.90;1.00
18268;DHT22;9260;49.998;19.880;2023-04-24T08:31:53;34.20;1.00
18268;DHT22;9260;49.998;19.880;2023-04-24T08:41:57;33.90;1.00
18268;DHT22;9260;49.998;19.880;2023-04-24T08:52:08;33.50;1.00
18268;DHT22;9260;49.998;19.880;2023-04-24T09:02:15;36.60;1.00
18268;DHT22;9260;49.998;19.880;2023-04-24T09:12:20;35.00;1.00
18268;DHT22;9260;49.998;19.880;2023-04-24T09:22:24;39.60;1.00
18268;DHT22;9260;49.998;19.880;2023-04-24T09:32:29;44.20;1.00
18268;DHT22;9260;49.998;19.880;2023-04-24T09:42:33;46.20;1.00
18268;DHT22;9260;49.998;19.880;2023-04-24T09:52:41;46.20;1.00
18268;DHT22;9260;49.998;19.880;2023-04-24T10:02:49;45.10;1.00
18268;DHT22;9260;49.998;19.880;2023-04-24T10:12:56;41.70;1.00
18268;DHT22;9260;49.998;19.880;2023-04-24T10:23:00;38.50;1.00
18268;DHT22;9260;49.998;19.880;2023-04-24T10:33:07;37.80;1.00
18268;DHT22;9260;49.998;19.880;2023-04-24T10:43:17;40.20;1.00
18268;DHT22;9260;49.998;19.880;2023-04-24T10:53:23;40.40;1.00
18268;DHT22;9260;49.998;19.880;2023-04-24T11:03:29;38.70;1.00
18268;DHT22;9260;49.998;19.880;2023-04-24T11:14:04;39.40;1.00
18268;DHT22;9260;49.998;19.880;2023-04-24T11:24:25;39.20;1.00
18268;DHT22;9260;49.998;19.880;2023-04-24T11:34:32;39.30;1.00
18268;DHT22;9260;49.998;19.880;2023-04-24T11:44:35;40.00;1.00
18268;DHT22;9260;49.998;19.880;2023-04-24T11:54:48;37.60;1.00
18268;DHT22;9260;49.998;19.880;2023-04-24T12:04:53;44.80;1.00
18268;DHT22;9260;49.998;19.880;2023-04-24T12:14:59;50.10;1.00
18268;DHT22;9260;49.998;19.880;2023-04-24T12:25:04;37.90;1.00
18268;DHT22;9260;49.998;19.880;2023-04-24T12:35:10;30.40;1.00
18268;DHT22;9260;49.998;19.880;2023-04-24T12:45:15;26.10;1.00
18268;DHT22;9260;49.998;19.880;2023-04-24T12:55:20;24.30;1.00
18268;DHT22;9260;49.998;19.880;2023-04-24T13:05:24;23.30;1.00
18268;DHT22;9260;49.998;19.880;2023-04-24T13:15:29;22.40;1.00
18268;DHT22;9260;49.998;19.880;2023-04-24T13:25:35;21.60;1.00
18268;DHT22;9260;49.998;19.880;2023-04-24T13:35:42;20.50;1.00
18268;DHT22;9260;49.998;19.880;2023-04-24T13:45:45;19.60;1.00
18268;DHT22;9260;49.998;19.880;2023-04-24T13:55:50;19.30;1.00
18268;DHT22;9260;49.998;19.880;2023-04-24T14:05:54;18.90;1.00
18268;DHT22;9260;49.998;19.880;2023-04-24T14:15:59;18.80;1.00
18268;DHT22;9260;49.998;19.880;2023-04-24T14:26:02;18.60;1.00
18268;DHT22;9260;49.998;19.880;2023-04-24T14:36:07;17.90;1.00
18268;DHT22;9260;49.998;19.880;2023-04-24T14:46:11;17.70;1.00
18268;DHT22;9260;49.998;19.880;2023-04-24T14:56:15;17.60;1.00
18268;DHT22;9260;49.998;19.880;2023-04-24T15:06:19;17.40;1.00
18268;DHT22;9260;49.998;19.880;2023-04-24T15:16:25;17.00;1.00
18268;DHT22;9260;49.998;19.880;2023-04-24T15:26:28;16.50;1.00
18268;DHT22;9260;49.998;19.880;2023-04-24T15:36:33;16.10;1.00
18268;DHT22;9260;49.998;19.880;2023-04-24T15:46:36;15.70;1.00
18268;DHT22;9260;49.998;19.880;2023-04-24T15:56:41;15.20;1.00
18268;DHT22;9260;49.998;19.880;2023-04-24T16:06:46;14.60;1.00
18268;DHT22;9260;49.998;19.880;2023-04-24T16:16:50;14.30;1.00
18268;DHT22;9260;49.998;19.880;2023-04-24T16:26:56;14.00;1.00
18268;DHT22;9260;49.998;19.880;2023-04-24T16:37:01;13.80;1.00
18268;DHT22;9260;49.998;19.880;2023-04-24T16:47:05;13.70;1.00
18268;DHT22;9260;49.998;19.880;2023-04-24T16:57:10;13.70;1.00
18268;DHT22;9260;49.998;19.880;2023-04-24T17:07:13;13.60;1.00
18268;DHT22;9260;49.998;19.880;2023-04-24T17:17:19;13.40;1.00
18268;DHT22;9260;49.998;19.880;2023-04-24T17:27:24;13.20;1.00
18268;DHT22;9260;49.998;19.880;2023-04-24T17:37:29;13.00;1.00
18268;DHT22;9260;49.998;19.880;2023-04-24T17:47:32;12.60;1.00
18268;DHT22;9260;49.998;19.880;2023-04-24T17:57:37;12.50;1.00
18268;DHT22;9260;49.998;19.880;2023-04-24T18:07:41;12.30;1.00
18268;DHT22;9260;49.998;19.880;2023-04-24T18:17:45;11.90;1.00
18268;DHT22;9260;49.998;19.880;2023-04-24T18:27:49;11.70;1.00
18268;DHT22;9260;49.998;19.880;2023-04-24T18:37:54;11.50;1.00
18268;DHT22;9260;49.998;19.880;2023-04-24T18:47:57;11.40;1.00
18268;DHT22;9260;49.998;19.880;2023-04-24T18:58:02;11.20;1.00
18268;DHT22;9260;49.998;19.880;2023-04-24T19:08:06;11.10;1.00
18268;DHT22;9260;49.998;19.880;2023-04-24T19:18:10;11.00;1.00
18268;DHT22;9260;49.998;19.880;2023-04-24T19:28:15;11.00;1.00
18268;DHT22;9260;49.998;19.880;2023-04-24T19:38:20;11.00;1.00
18268;DHT22;9260;49.998;19.880;2023-04-24T19:48:24;11.00;1.00
18268;DHT22;9260;49.998;19.880;2023-04-24T19:58:33;10.90;1.00
18268;DHT22;9260;49.998;19.880;2023-04-24T20:08:36;10.80;1.00
18268;DHT22;9260;49.998;19.880;2023-04-24T20:18:42;10.80;1.00
18268;DHT22;9260;49.998;19.880;2023-04-24T20:28:45;10.80;1.00
18268;DHT22;9260;49.998;19.880;2023-04-24T20:38:50;10.90;1.00
18268;DHT22;9260;49.998;19.880;2023-04-24T20:48:54;11.10;1.00
18268;DHT22;9260;49.998;19.880;2023-04-24T20:58:59;11.10;1.00
18268;DHT22;9260;49.998;19.880;2023-04-24T21:09:02;11.00;1.00
18268;DHT22;9260;49.998;19.880;2023-04-24T21:19:08;11.00;1.00
18268;DHT22;9260;49.998;19.880;2023-04-24T21:29:11;11.00;1.00
18268;DHT22;9260;49.998;19.880;2023-04-24T21:39:16;11.10;1.00
18268;DHT22;9260;49.998;19.880;2023-04-24T21:49:19;11.10;1.00
18268;DHT22;9260;49.998;19.880;2023-04-24T21:59:24;10.90;1.00
18268;DHT22;9260;49.998;19.880;2023-04-24T22:09:27;10.80;1.00
18268;DHT22;9260;49.998;19.880;2023-04-24T22:19:32;10.70;1.00
18268;DHT22;9260;49.998;19.880;2023-04-24T22:29:36;10.70;1.00
18268;DHT22;9260;49.998;19.880;2023-04-24T22:39:40;10.70;1.00
18268;DHT22;9260;49.998;19.880;2023-04-24T22:49:44;10.50;1.00
18268;DHT22;9260;49.998;19.880;2023-04-24T22:59:49;10.50;1.00
18268;DHT22;9260;49.998;19.880;2023-04-24T23:09:53;10.40;1.00
18268;DHT22;9260;49.998;19.880;2023-04-24T23:19:59;10.40;1.00
18268;DHT22;9260;49.998;19.880;2023-04-24T23:30:03;10.30;1.00
18268;DHT22;9260;49.998;19.880;2023-04-24T23:40:10;10.20;1.00
18268;DHT22;9260;49.998;19.880;2023-04-24T23:50:14;10.20;1.00
